Weather at Notodden Airport

Public forecast

Using degrees Celsius for public forecast. Weather courtesy of forecast.io.

Current aviation weather report (METAR) for Notodden Airport

Report is more than 2 hours old.

Retrieved 2021/04/12 16:50 UTC (6 hours ago):

ENNO 121650Z 30005KT 9999 FEW020 SCT030 BKN045 04/00 Q1014

Closest aviation forecast (TAF) to Notodden Airport

Closest forecast is Sandefjord Airport, Torp, 39.3 nm (72.7 km) SE. Retrieved 2021/04/12 18:57 UTC (4 hours ago):

TAF ENTO 121700Z 1218/1318 34008KT 9999 -SHRA SCT008 BKN020 TEMPO 1218/1303 2000 SHSNRA BKN008 FEW020CB